Time;durP1;ratioP1;P1;durP2;ratioP2;P2;SDS_P1;SDS_P2;PMS_P1;PMS_P2;Temp;Humidity;BMP_temperature;BMP_pressure;BME280_temperature;BME280_humidity;BME280_pressure;Samples;Min_cycle;Max_cycle;Signal;HPM_P1;HPM_P2
2023/06/26 00:04:22;;;;;;;3.95;3.00;;;;;;;;;;10293981;28;20209;-74
2023/06/26 00:09:23;;;;;;;3.15;3.00;;;;;;;;;;10282942;28;20230;-74
2023/06/26 00:14:25;;;;;;;3.47;3.28;;;;;;;;;;10297091;28;20267;-74
2023/06/26 00:19:26;;;;;;;3.05;2.88;;;;;;;;;;10293826;28;20209;-74
2023/06/26 00:24:27;;;;;;;3.30;3.17;;;;;;;;;;10278150;28;20307;-75
2023/06/26 00:29:28;;;;;;;3.03;2.92;;;;;;;;;;10271533;28;20213;-74
2023/06/26 00:34:30;;;;;;;2.97;2.78;;;;;;;;;;10268483;28;21500;-76
2023/06/26 00:39:31;;;;;;;3.30;3.10;;;;;;;;;;10264893;28;20292;-73
2023/06/26 00:44:32;;;;;;;2.67;2.58;;;;;;;;;;10270356;28;20216;-73
2023/06/26 00:49:33;;;;;;;3.17;3.08;;;;;;;;;;10253949;28;20239;-73
2023/06/26 00:54:34;;;;;;;3.15;3.05;;;;;;;;;;10276786;28;21005;-73
2023/06/26 00:59:35;;;;;;;3.05;2.92;;;;;;;;;;10272943;28;20754;-73
2023/06/26 01:04:37;;;;;;;3.30;3.20;;;;;;;;;;10263333;28;20964;-72
2023/06/26 01:09:41;;;;;;;3.22;3.03;;;;;;;;;;10273548;28;20296;-73
2023/06/26 01:14:42;;;;;;;3.38;3.22;;;;;;;;;;10293801;28;20212;-73
2023/06/26 01:19:44;;;;;;;3.33;3.17;;;;;;;;;;10287629;28;20235;-74
2023/06/26 01:25:00;;;;;;;3.33;3.22;;;;;;;;;;10292506;28;20224;-73
2023/06/26 01:30:04;;;;;;;3.33;3.22;;;;;;;;;;10289335;28;20231;-74
2023/06/26 01:35:06;;;;;;;3.38;3.28;;;;;;;;;;10293400;28;20197;-73
2023/06/26 01:40:08;;;;;;;4.10;3.33;;;;;;;;;;10289678;28;20209;-73
2023/06/26 01:45:23;;;;;;;4.38;3.95;;;;;;;;;;10303724;28;20203;-74
2023/06/26 01:50:29;;;;;;;3.72;3.53;;;;;;;;;;10297452;28;20223;-74
2023/06/26 01:55:35;;;;;;;4.15;3.95;;;;;;;;;;10299510;28;20229;-74
2023/06/26 02:00:37;;;;;;;3.88;3.67;;;;;;;;;;10291130;28;20224;-75
2023/06/26 02:05:38;;;;;;;4.43;3.78;;;;;;;;;;10302751;28;20294;-73
2023/06/26 02:10:40;;;;;;;4.28;4.05;;;;;;;;;;10270888;28;20361;-73
2023/06/26 02:15:41;;;;;;;4.32;4.00;;;;;;;;;;10284949;28;20212;-73
2023/06/26 02:20:43;;;;;;;4.43;4.22;;;;;;;;;;10277797;28;20217;-73
2023/06/26 02:25:45;;;;;;;3.22;3.13;;;;;;;;;;10264011;28;20790;-74
2023/06/26 02:30:46;;;;;;;6.22;4.38;;;;;;;;;;10275538;28;20299;-74
2023/06/26 02:35:47;;;;;;;4.55;4.25;;;;;;;;;;10275580;28;20245;-73
2023/06/26 02:40:48;;;;;;;4.18;3.88;;;;;;;;;;10264653;28;20218;-73
2023/06/26 02:45:50;;;;;;;3.97;3.55;;;;;;;;;;10279623;28;20236;-73
2023/06/26 02:50:52;;;;;;;3.72;3.58;;;;;;;;;;10281387;28;20240;-73
2023/06/26 02:55:56;;;;;;;4.25;3.88;;;;;;;;;;10261457;28;20778;-73
2023/06/26 03:00:58;;;;;;;4.22;4.03;;;;;;;;;;10270175;28;20287;-74
2023/06/26 03:05:59;;;;;;;3.75;3.58;;;;;;;;;;10281671;28;20220;-73
2023/06/26 03:11:01;;;;;;;4.32;4.05;;;;;;;;;;10252104;28;20230;-73
2023/06/26 03:16:03;;;;;;;4.75;4.47;;;;;;;;;;10290077;28;20212;-72
2023/06/26 03:21:04;;;;;;;4.50;4.30;;;;;;;;;;10273299;28;20275;-73
2023/06/26 03:26:05;;;;;;;5.03;4.78;;;;;;;;;;10272053;28;20718;-73
2023/06/26 03:31:10;;;;;;;5.60;4.65;;;;;;;;;;10281743;28;20224;-73
2023/06/26 03:36:11;;;;;;;8.73;5.25;;;;;;;;;;10274002;28;20218;-74
2023/06/26 03:41:12;;;;;;;5.32;4.88;;;;;;;;;;10272510;28;20591;-74
2023/06/26 03:46:13;;;;;;;5.03;4.63;;;;;;;;;;10272370;28;20220;-75
2023/06/26 03:51:15;;;;;;;5.13;4.82;;;;;;;;;;10269442;28;20221;-74
2023/06/26 03:56:17;;;;;;;6.40;5.00;;;;;;;;;;10255850;28;20212;-75
2023/06/26 04:01:19;;;;;;;5.28;4.88;;;;;;;;;;10276207;28;20695;-74
2023/06/26 04:06:21;;;;;;;5.82;5.40;;;;;;;;;;10255040;28;20707;-73
2023/06/26 04:11:22;;;;;;;4.35;4.15;;;;;;;;;;10266813;28;20248;-74
2023/06/26 04:16:25;;;;;;;6.10;4.60;;;;;;;;;;10274555;28;20213;-74
2023/06/26 04:21:26;;;;;;;7.65;4.57;;;;;;;;;;10279572;28;20216;-74
2023/06/26 04:26:27;;;;;;;5.47;4.97;;;;;;;;;;10291921;28;20205;-75
2023/06/26 04:31:28;;;;;;;4.55;4.25;;;;;;;;;;10268307;28;20714;-74
2023/06/26 04:36:31;;;;;;;4.13;3.65;;;;;;;;;;10283976;28;21335;-74
2023/06/26 04:41:32;;;;;;;4.78;4.45;;;;;;;;;;10253384;28;20219;-73
2023/06/26 04:46:33;;;;;;;3.65;3.55;;;;;;;;;;10267235;28;20213;-73
2023/06/26 04:51:40;;;;;;;4.75;4.45;;;;;;;;;;10256983;28;21891;-73
2023/06/26 04:56:41;;;;;;;3.95;3.70;;;;;;;;;;10265537;28;20236;-75
2023/06/26 05:01:44;;;;;;;3.88;3.67;;;;;;;;;;10270597;28;20932;-74
2023/06/26 05:06:45;;;;;;;4.03;3.83;;;;;;;;;;10275059;28;20255;-73
2023/06/26 05:11:46;;;;;;;5.40;3.85;;;;;;;;;;10285599;28;20220;-75
2023/06/26 05:16:47;;;;;;;3.90;3.30;;;;;;;;;;10252449;28;20215;-75
2023/06/26 05:21:48;;;;;;;3.95;3.65;;;;;;;;;;10288826;28;20225;-73
2023/06/26 05:26:50;;;;;;;3.75;3.55;;;;;;;;;;10281538;28;20296;-73
2023/06/26 05:31:53;;;;;;;3.88;3.65;;;;;;;;;;10264685;28;20221;-74
2023/06/26 05:36:57;;;;;;;3.47;3.38;;;;;;;;;;10275985;28;20216;-74
2023/06/26 05:41:59;;;;;;;3.40;3.20;;;;;;;;;;10294561;28;20216;-74
2023/06/26 05:47:00;;;;;;;4.15;3.78;;;;;;;;;;10244692;28;20229;-73
2023/06/26 05:52:02;;;;;;;4.07;3.80;;;;;;;;;;10281299;28;20262;-75
2023/06/26 05:57:04;;;;;;;3.20;3.10;;;;;;;;;;10266037;28;20201;-74
2023/06/26 06:02:06;;;;;;;3.45;3.25;;;;;;;;;;10261314;28;20217;-73
2023/06/26 06:07:07;;;;;;;3.35;3.15;;;;;;;;;;10280084;28;20731;-74
2023/06/26 06:12:08;;;;;;;3.13;3.03;;;;;;;;;;10282319;28;20236;-73
2023/06/26 06:17:09;;;;;;;2.95;2.85;;;;;;;;;;10255994;28;20217;-73
2023/06/26 06:22:10;;;;;;;6.43;3.42;;;;;;;;;;10264429;28;20217;-74
2023/06/26 06:27:11;;;;;;;2.60;2.50;;;;;;;;;;10262861;28;20697;-74
2023/06/26 06:32:12;;;;;;;3.15;2.83;;;;;;;;;;10284693;28;20730;-75
2023/06/26 06:37:13;;;;;;;2.40;2.40;;;;;;;;;;10254665;28;20311;-74
2023/06/26 06:42:14;;;;;;;3.22;2.80;;;;;;;;;;10278277;28;20699;-72
2023/06/26 06:47:15;;;;;;;2.53;2.42;;;;;;;;;;10256705;28;20233;-74
2023/06/26 06:52:16;;;;;;;2.88;2.65;;;;;;;;;;10255024;28;20221;-75
2023/06/26 06:57:18;;;;;;;2.33;2.22;;;;;;;;;;10271088;28;20225;-73
2023/06/26 07:02:19;;;;;;;2.55;2.42;;;;;;;;;;10256442;28;20213;-74
2023/06/26 07:07:20;;;;;;;2.60;2.42;;;;;;;;;;10281651;28;20232;-74
2023/06/26 07:12:21;;;;;;;4.15;2.50;;;;;;;;;;10281168;28;20738;-73
2023/06/26 07:17:22;;;;;;;4.10;2.33;;;;;;;;;;10281056;28;20228;-74
2023/06/26 07:22:23;;;;;;;2.40;2.30;;;;;;;;;;10272617;28;20216;-75
2023/06/26 07:27:24;;;;;;;2.72;2.58;;;;;;;;;;10277403;28;20235;-76
2023/06/26 07:32:25;;;;;;;2.70;2.50;;;;;;;;;;10271589;28;20221;-74
2023/06/26 07:37:26;;;;;;;2.78;2.67;;;;;;;;;;10289402;28;21040;-74
2023/06/26 07:42:27;;;;;;;4.38;2.13;;;;;;;;;;10285184;28;20640;-75
2023/06/26 07:47:29;;;;;;;2.65;2.55;;;;;;;;;;10274348;28;20840;-76
2023/06/26 07:52:30;;;;;;;2.67;2.50;;;;;;;;;;10289545;28;20253;-78
2023/06/26 07:57:32;;;;;;;2.90;2.80;;;;;;;;;;10281431;28;20303;-74
2023/06/26 08:02:33;;;;;;;2.42;2.42;;;;;;;;;;10289622;28;20213;-74
2023/06/26 08:07:34;;;;;;;2.10;2.10;;;;;;;;;;10285228;28;20229;-75
2023/06/26 08:12:36;;;;;;;2.63;2.53;;;;;;;;;;10265157;28;20235;-74
2023/06/26 08:17:38;;;;;;;3.50;2.63;;;;;;;;;;10273459;28;20212;-74
2023/06/26 08:22:38;;;;;;;2.75;2.55;;;;;;;;;;10284793;28;20339;-76
2023/06/26 08:27:40;;;;;;;2.55;2.45;;;;;;;;;;10268091;28;20249;-75
2023/06/26 08:32:41;;;;;;;4.65;2.50;;;;;;;;;;10283537;28;20702;-74
2023/06/26 08:37:42;;;;;;;2.85;2.58;;;;;;;;;;10270163;28;21059;-74
2023/06/26 08:42:43;;;;;;;2.70;2.60;;;;;;;;;;10267766;28;20280;-74
2023/06/26 08:47:44;;;;;;;3.03;2.83;;;;;;;;;;10263393;28;20221;-74
2023/06/26 08:52:59;;;;;;;3.38;3.17;;;;;;;;;;10282349;28;20256;-75
2023/06/26 08:58:01;;;;;;;3.22;2.60;;;;;;;;;;10270112;28;20224;-75
2023/06/26 09:03:04;;;;;;;2.70;2.60;;;;;;;;;;10278834;28;20233;-75
2023/06/26 09:08:05;;;;;;;2.83;2.67;;;;;;;;;;10266062;28;20260;-71
2023/06/26 09:13:06;;;;;;;2.92;2.63;;;;;;;;;;10263980;28;20271;-75
2023/06/26 09:18:07;;;;;;;3.60;3.40;;;;;;;;;;10286329;28;20216;-76
2023/06/26 09:23:08;;;;;;;3.17;3.08;;;;;;;;;;10278208;28;20217;-75
2023/06/26 09:28:10;;;;;;;3.30;3.03;;;;;;;;;;10292614;28;20217;-77
2023/06/26 09:33:15;;;;;;;2.95;2.80;;;;;;;;;;10287351;28;20232;-76
2023/06/26 09:38:17;;;;;;;3.20;2.92;;;;;;;;;;10287919;28;20232;-77
2023/06/26 09:43:19;;;;;;;3.00;2.90;;;;;;;;;;10256768;28;20217;-76
2023/06/26 09:48:20;;;;;;;2.95;2.75;;;;;;;;;;10266352;28;20689;-76
2023/06/26 09:53:21;;;;;;;2.63;2.63;;;;;;;;;;10282009;28;20235;-76
2023/06/26 09:58:22;;;;;;;2.95;2.80;;;;;;;;;;10304418;28;20208;-75
2023/06/26 10:03:23;;;;;;;2.92;2.58;;;;;;;;;;10302168;28;20363;-76
2023/06/26 10:08:25;;;;;;;4.88;3.00;;;;;;;;;;10291554;28;20295;-75
2023/06/26 10:13:29;;;;;;;2.97;2.85;;;;;;;;;;10275975;28;20244;-75
2023/06/26 10:18:31;;;;;;;3.15;2.50;;;;;;;;;;10289591;28;20653;-77
2023/06/26 10:23:33;;;;;;;2.90;2.80;;;;;;;;;;10293649;28;20220;-74
2023/06/26 10:28:35;;;;;;;3.05;2.95;;;;;;;;;;10295118;28;20213;-77
2023/06/26 10:33:36;;;;;;;2.97;2.70;;;;;;;;;;10293219;28;20730;-75
2023/06/26 10:38:51;;;;;;;3.13;3.03;;;;;;;;;;10293302;28;20906;-73
2023/06/26 10:44:07;;;;;;;7.30;2.60;;;;;;;;;;10279905;28;20217;-76
2023/06/26 10:49:12;;;;;;;2.70;2.60;;;;;;;;;;10278272;28;20224;-77
2023/06/26 10:54:15;;;;;;;3.10;2.72;;;;;;;;;;10291177;28;20317;-74
2023/06/26 10:59:17;;;;;;;3.35;3.10;;;;;;;;;;10289850;28;20268;-76
2023/06/26 11:04:18;;;;;;;2.92;2.83;;;;;;;;;;10281915;28;20220;-75
2023/06/26 11:09:24;;;;;;;2.70;2.65;;;;;;;;;;10266850;28;20259;-75
2023/06/26 11:14:26;;;;;;;2.45;2.35;;;;;;;;;;10285655;28;20217;-77
2023/06/26 11:19:28;;;;;;;2.97;2.75;;;;;;;;;;10292677;28;20676;-77
2023/06/26 11:24:31;;;;;;;2.70;2.60;;;;;;;;;;10293494;28;20252;-74
2023/06/26 11:29:33;;;;;;;2.92;2.78;;;;;;;;;;10294697;28;20824;-78
2023/06/26 11:34:35;;;;;;;2.58;2.35;;;;;;;;;;10289685;28;20725;-75
2023/06/26 11:39:37;;;;;;;2.97;2.78;;;;;;;;;;10289763;28;20745;-76
2023/06/26 11:44:42;;;;;;;2.30;2.20;;;;;;;;;;10296268;28;20280;-75
2023/06/26 11:49:44;;;;;;;2.60;2.60;;;;;;;;;;10290894;28;20232;-75
2023/06/26 11:54:46;;;;;;;2.58;2.53;;;;;;;;;;10285260;28;20221;-78
2023/06/26 11:59:51;;;;;;;3.08;2.97;;;;;;;;;;10297541;28;20216;-77
2023/06/26 12:04:52;;;;;;;3.28;3.00;;;;;;;;;;10291536;28;20254;-76
2023/06/26 12:09:55;;;;;;;3.25;3.05;;;;;;;;;;10280969;28;20876;-75
2023/06/26 12:14:56;;;;;;;4.10;3.33;;;;;;;;;;10278617;28;20218;-77
2023/06/26 12:19:57;;;;;;;3.95;3.65;;;;;;;;;;10291720;28;20726;-74
2023/06/26 12:24:58;;;;;;;4.72;4.32;;;;;;;;;;10287613;28;20224;-73
2023/06/26 12:29:59;;;;;;;4.63;4.32;;;;;;;;;;10267902;28;20209;-75
2023/06/26 12:35:01;;;;;;;5.43;4.90;;;;;;;;;;10280075;28;20217;-75
2023/06/26 12:40:05;;;;;;;5.43;4.95;;;;;;;;;;10294780;28;20204;-74
2023/06/26 12:45:13;;;;;;;13.80;5.45;;;;;;;;;;10318914;28;20221;-76
2023/06/26 12:50:16;;;;;;;6.07;5.68;;;;;;;;;;10300839;28;20205;-76
2023/06/26 12:55:17;;;;;;;5.07;4.65;;;;;;;;;;10300669;28;20205;-75
2023/06/26 13:00:18;;;;;;;5.13;4.82;;;;;;;;;;10302113;28;20177;-80
2023/06/26 13:05:20;;;;;;;5.97;5.45;;;;;;;;;;10304838;28;21076;-76
2023/06/26 13:10:21;;;;;;;6.55;5.93;;;;;;;;;;10294008;28;20188;-73
2023/06/26 13:15:22;;;;;;;7.75;6.13;;;;;;;;;;10297526;28;20225;-77
2023/06/26 13:20:23;;;;;;;6.78;6.28;;;;;;;;;;10284943;28;20193;-75
2023/06/26 13:25:24;;;;;;;5.07;4.75;;;;;;;;;;10285714;28;20227;-75
2023/06/26 13:30:25;;;;;;;9.48;3.65;;;;;;;;;;10306168;28;22215;-76
2023/06/26 13:35:26;;;;;;;5.30;3.15;;;;;;;;;;10297712;28;20270;-75
2023/06/26 13:40:27;;;;;;;6.53;2.67;;;;;;;;;;10300287;28;20794;-74
2023/06/26 13:45:28;;;;;;;6.43;3.85;;;;;;;;;;10303578;28;20225;-74
2023/06/26 13:50:29;;;;;;;3.50;2.97;;;;;;;;;;10297134;28;21086;-75
2023/06/26 13:55:31;;;;;;;5.18;3.13;;;;;;;;;;10290781;28;20222;-77
2023/06/26 14:00:33;;;;;;;3.28;3.08;;;;;;;;;;10305525;28;20215;-75
2023/06/26 14:05:34;;;;;;;4.05;3.85;;;;;;;;;;10291521;28;20246;-75
2023/06/26 14:10:36;;;;;;;3.40;3.10;;;;;;;;;;10296268;28;20289;-72
2023/06/26 14:15:40;;;;;;;3.45;3.25;;;;;;;;;;10270756;28;20852;-74
2023/06/26 14:20:41;;;;;;;4.28;3.85;;;;;;;;;;10292629;28;20217;-74
2023/06/26 14:25:42;;;;;;;4.15;2.90;;;;;;;;;;10276778;28;20307;-77
2023/06/26 14:30:43;;;;;;;4.53;3.63;;;;;;;;;;10296762;28;20731;-77
2023/06/26 14:35:44;;;;;;;6.03;3.50;;;;;;;;;;10269848;28;20213;-76
2023/06/26 14:40:45;;;;;;;4.13;3.83;;;;;;;;;;10292935;28;20277;-75
2023/06/26 14:45:47;;;;;;;7.10;4.20;;;;;;;;;;10277421;28;20292;-75
2023/06/26 14:50:48;;;;;;;3.70;3.58;;;;;;;;;;10281862;28;20711;-78
2023/06/26 14:55:49;;;;;;;4.03;3.72;;;;;;;;;;10292988;28;20225;-77
2023/06/26 15:00:50;;;;;;;3.40;3.20;;;;;;;;;;10285833;28;20296;-76
2023/06/26 15:05:51;;;;;;;3.83;3.30;;;;;;;;;;10281678;28;20244;-74
2023/06/26 15:10:52;;;;;;;3.40;3.10;;;;;;;;;;10274474;28;20269;-76
2023/06/26 15:15:53;;;;;;;6.70;3.03;;;;;;;;;;10301978;28;20209;-74
2023/06/26 15:20:54;;;;;;;3.58;3.25;;;;;;;;;;10298791;28;20224;-77
2023/06/26 15:25:55;;;;;;;2.63;2.33;;;;;;;;;;10298644;28;20212;-74
2023/06/26 15:30:56;;;;;;;2.88;2.70;;;;;;;;;;10296589;28;20217;-74
2023/06/26 15:35:58;;;;;;;3.17;2.42;;;;;;;;;;10293072;28;20453;-77
2023/06/26 15:40:59;;;;;;;4.72;2.45;;;;;;;;;;10295114;28;20303;-73
2023/06/26 15:46:00;;;;;;;2.70;2.58;;;;;;;;;;10291454;28;20227;-75
2023/06/26 15:51:01;;;;;;;2.63;2.20;;;;;;;;;;10279542;28;20224;-75
2023/06/26 15:56:02;;;;;;;2.22;2.13;;;;;;;;;;10294136;28;20214;-77
2023/06/26 16:01:03;;;;;;;1.98;1.88;;;;;;;;;;10279153;28;20221;-73
2023/06/26 16:06:04;;;;;;;2.40;1.67;;;;;;;;;;10278713;28;20228;-75
2023/06/26 16:11:05;;;;;;;2.88;1.92;;;;;;;;;;10292551;28;20213;-75
2023/06/26 16:16:07;;;;;;;2.50;1.63;;;;;;;;;;10288016;28;20722;-73
2023/06/26 16:21:08;;;;;;;1.77;1.13;;;;;;;;;;10283369;28;20820;-74
2023/06/26 16:26:10;;;;;;;1.90;1.80;;;;;;;;;;10276635;28;20261;-71
2023/06/26 16:31:11;;;;;;;1.65;1.60;;;;;;;;;;10260872;28;20221;-75
2023/06/26 16:36:12;;;;;;;2.28;1.42;;;;;;;;;;10273655;28;20602;-74
2023/06/26 16:41:14;;;;;;;2.20;1.30;;;;;;;;;;10278699;28;20220;-75
2023/06/26 16:46:15;;;;;;;1.95;1.13;;;;;;;;;;10292420;28;20225;-77
2023/06/26 16:51:15;;;;;;;1.42;1.27;;;;;;;;;;10291066;28;20229;-73
2023/06/26 16:56:16;;;;;;;0.93;0.88;;;;;;;;;;10287272;28;20221;-74
2023/06/26 17:01:17;;;;;;;1.20;1.10;;;;;;;;;;10287859;28;20283;-74
2023/06/26 17:06:18;;;;;;;0.93;0.93;;;;;;;;;;10277296;28;20240;-76
2023/06/26 17:11:19;;;;;;;1.63;1.10;;;;;;;;;;10278498;28;20227;-73
2023/06/26 17:16:20;;;;;;;1.00;1.00;;;;;;;;;;10276848;28;20209;-71
2023/06/26 17:21:21;;;;;;;0.70;0.70;;;;;;;;;;10277634;28;20245;-73
2023/06/26 17:26:22;;;;;;;2.42;1.02;;;;;;;;;;10288140;28;20221;-73
2023/06/26 17:31:24;;;;;;;2.30;1.02;;;;;;;;;;10292745;28;20225;-72
2023/06/26 17:36:25;;;;;;;0.90;0.73;;;;;;;;;;10285858;28;20216;-72
2023/06/26 17:41:25;;;;;;;0.80;0.80;;;;;;;;;;10279322;28;20224;-73
2023/06/26 17:46:27;;;;;;;1.17;0.70;;;;;;;;;;10288337;28;20219;-74
2023/06/26 17:51:28;;;;;;;0.88;0.88;;;;;;;;;;10291211;28;20217;-75
2023/06/26 17:56:29;;;;;;;0.95;0.70;;;;;;;;;;10292023;28;20220;-72
2023/06/26 18:01:30;;;;;;;1.27;0.90;;;;;;;;;;10275940;28;20213;-79
2023/06/26 18:06:31;;;;;;;1.17;0.80;;;;;;;;;;10283429;28;20439;-73
2023/06/26 18:11:33;;;;;;;3.88;1.20;;;;;;;;;;10284618;28;20216;-76
2023/06/26 18:16:34;;;;;;;2.83;0.73;;;;;;;;;;10255015;28;20220;-74
2023/06/26 18:21:35;;;;;;;0.60;0.60;;;;;;;;;;10270521;28;20306;-72
2023/06/26 18:26:36;;;;;;;0.70;0.70;;;;;;;;;;10266744;28;20247;-74
2023/06/26 18:31:37;;;;;;;0.88;0.80;;;;;;;;;;10280389;28;20255;-73
2023/06/26 18:36:38;;;;;;;1.70;0.70;;;;;;;;;;10289711;28;20220;-74
2023/06/26 18:41:39;;;;;;;2.85;0.80;;;;;;;;;;10285185;28;20239;-71
2023/06/26 18:46:40;;;;;;;0.68;0.63;;;;;;;;;;10264074;28;20217;-71
2023/06/26 18:51:41;;;;;;;1.98;1.00;;;;;;;;;;10291485;28;20682;-75
2023/06/26 18:56:42;;;;;;;0.77;0.77;;;;;;;;;;10285620;28;20224;-73
2023/06/26 19:01:43;;;;;;;0.73;0.60;;;;;;;;;;10290864;28;20221;-75
2023/06/26 19:06:44;;;;;;;0.70;0.70;;;;;;;;;;10294297;28;20327;-75
2023/06/26 19:11:45;;;;;;;1.70;1.20;;;;;;;;;;10294660;28;20626;-75
2023/06/26 19:16:46;;;;;;;1.77;0.95;;;;;;;;;;10285293;28;21035;-75
2023/06/26 19:21:47;;;;;;;0.70;0.70;;;;;;;;;;10278130;28;20220;-75
2023/06/26 19:26:49;;;;;;;4.35;0.80;;;;;;;;;;10274281;28;20228;-76
2023/06/26 19:31:50;;;;;;;0.60;0.60;;;;;;;;;;10275413;28;20220;-74
2023/06/26 19:36:51;;;;;;;1.25;0.90;;;;;;;;;;10287765;28;20852;-77
2023/06/26 19:41:52;;;;;;;2.08;0.98;;;;;;;;;;10274601;28;20216;-75
2023/06/26 19:46:54;;;;;;;1.20;0.68;;;;;;;;;;10274569;28;20224;-74
2023/06/26 19:51:55;;;;;;;2.85;0.98;;;;;;;;;;10297584;28;20213;-73
2023/06/26 19:56:56;;;;;;;0.80;0.80;;;;;;;;;;10289450;28;20605;-75
2023/06/26 20:01:57;;;;;;;2.55;0.80;;;;;;;;;;10298447;28;20312;-75
2023/06/26 20:07:01;;;;;;;3.83;0.85;;;;;;;;;;10284460;28;20254;-74
2023/06/26 20:12:02;;;;;;;1.50;0.90;;;;;;;;;;10297484;28;20225;-74
2023/06/26 20:17:03;;;;;;;1.52;1.15;;;;;;;;;;10290465;28;20235;-73
2023/06/26 20:22:04;;;;;;;0.75;0.75;;;;;;;;;;10269969;28;20212;-73
2023/06/26 20:27:05;;;;;;;0.90;0.82;;;;;;;;;;10286250;28;20225;-72
2023/06/26 20:32:07;;;;;;;0.75;0.75;;;;;;;;;;10297192;28;20291;-74
2023/06/26 20:37:08;;;;;;;0.90;0.85;;;;;;;;;;10284740;28;20236;-72
2023/06/26 20:42:09;;;;;;;1.20;0.73;;;;;;;;;;10299662;28;20901;-73
2023/06/26 20:47:12;;;;;;;0.82;0.82;;;;;;;;;;10286831;28;20645;-76
2023/06/26 20:52:15;;;;;;;1.40;0.80;;;;;;;;;;10288193;28;20854;-72
2023/06/26 20:57:17;;;;;;;2.92;0.50;;;;;;;;;;10296773;28;20241;-73
2023/06/26 21:02:18;;;;;;;1.23;0.40;;;;;;;;;;10286338;28;20220;-71
2023/06/26 21:07:19;;;;;;;3.05;0.60;;;;;;;;;;10289705;28;20264;-73
2023/06/26 21:12:20;;;;;;;1.25;0.50;;;;;;;;;;10299193;28;20311;-72
2023/06/26 21:17:21;;;;;;;0.40;0.40;;;;;;;;;;10286346;28;20209;-73
2023/06/26 21:22:22;;;;;;;0.57;0.57;;;;;;;;;;10300278;28;20334;-76
2023/06/26 21:27:23;;;;;;;2.25;0.75;;;;;;;;;;10303662;28;20270;-73
2023/06/26 21:32:24;;;;;;;1.88;0.90;;;;;;;;;;10295539;28;20311;-75
2023/06/26 21:37:25;;;;;;;0.77;0.70;;;;;;;;;;10299948;28;20227;-76
2023/06/26 21:42:26;;;;;;;3.17;0.60;;;;;;;;;;10304129;28;20224;-72
2023/06/26 21:47:27;;;;;;;1.63;0.40;;;;;;;;;;10306936;28;20227;-71
2023/06/26 21:52:28;;;;;;;5.07;0.60;;;;;;;;;;10304656;28;20220;-74
2023/06/26 21:57:29;;;;;;;4.50;0.98;;;;;;;;;;10297549;28;20722;-72
2023/06/26 22:02:30;;;;;;;7.32;0.70;;;;;;;;;;10293759;28;20738;-72
2023/06/26 22:07:31;;;;;;;1.42;0.60;;;;;;;;;;10289891;28;20606;-72
2023/06/26 22:12:32;;;;;;;0.75;0.70;;;;;;;;;;10304037;28;20712;-73
2023/06/26 22:17:46;;;;;;;0.50;0.50;;;;;;;;;;10302594;28;20213;-75
2023/06/26 22:22:47;;;;;;;1.13;0.70;;;;;;;;;;10293984;28;20679;-71
2023/06/26 22:27:49;;;;;;;2.70;0.52;;;;;;;;;;10305946;28;20221;-72
2023/06/26 22:32:50;;;;;;;0.60;0.55;;;;;;;;;;10302601;28;20217;-75
2023/06/26 22:37:51;;;;;;;1.10;0.50;;;;;;;;;;10290366;28;20228;-72
2023/06/26 22:42:52;;;;;;;1.92;0.60;;;;;;;;;;10305530;28;20225;-74
2023/06/26 22:47:53;;;;;;;1.52;0.70;;;;;;;;;;10301302;28;20228;-73
2023/06/26 22:52:54;;;;;;;0.98;0.60;;;;;;;;;;10305584;28;20223;-70
2023/06/26 22:57:55;;;;;;;3.70;0.90;;;;;;;;;;10301291;28;20319;-72
2023/06/26 23:02:56;;;;;;;3.65;0.80;;;;;;;;;;10295868;28;20220;-72
2023/06/26 23:08:01;;;;;;;3.03;0.60;;;;;;;;;;10278440;28;20249;-75
2023/06/26 23:13:03;;;;;;;1.38;0.73;;;;;;;;;;10305778;28;20767;-71
2023/06/26 23:18:04;;;;;;;3.70;0.70;;;;;;;;;;10303090;28;20217;-74
2023/06/26 23:23:05;;;;;;;1.17;1.08;;;;;;;;;;10302828;28;20217;-74
2023/06/26 23:28:06;;;;;;;0.73;0.73;;;;;;;;;;10304413;28;20766;-72
2023/06/26 23:33:07;;;;;;;1.25;0.90;;;;;;;;;;10303698;28;20752;-72
2023/06/26 23:38:08;;;;;;;0.82;0.73;;;;;;;;;;10302279;28;20307;-74
2023/06/26 23:43:09;;;;;;;2.80;0.60;;;;;;;;;;10306600;28;20220;-72
2023/06/26 23:48:10;;;;;;;2.08;0.80;;;;;;;;;;10300025;28;20312;-72
2023/06/26 23:53:11;;;;;;;0.80;0.80;;;;;;;;;;10300648;28;20233;-73
2023/06/26 23:58:12;;;;;;;1.98;1.27;;;;;;;;;;10284989;28;20271;-73
